Sauquoit, NY (13456)

11:11 AM EST on December 09, 2016 (GMT -0500)
Southern New Hartford, NY | | Change Station
Active Advisory: Lake Effect Snow Advisory

Elev 874 ft 43.03 °N, 75.25 °W | Updated 26 seconds ago

Overcast
Overcast
22.5 °F
Feels Like 16 °F
N
5.0
Wind Variable Wind from NW

Today
High -- | Low -- °F
--% Chance of Precip.
Yesterday
High -- | Low -- °F
Precip. -- in
Pressure 30.17 in
Visibility 10.0 miles
Clouds Scattered Clouds 4000 ft
Overcast 5000 ft
Windchill 16 °F
Dew Point 18 °F
Humidity 83%
Rainfall 0.04 in
Snow Depth Not available.
7:20 AM 4:26 PM
Waxing Gibbous, 75% visible
METAR KRME 091553Z 32013KT 10SM SCT040 OVC050 M04/M09 A3015 RMK AO2 SNE06B09E36 SLP214 P0000 T10441094
Pressure 30.17 in
Visibility 10.0 miles
Clouds Scattered Clouds 4000 ft
Overcast 5000 ft
Windchill 16 °F
Dew Point 18 °F
Humidity 83%
Rainfall 0.04 in
Snow Depth Not available.
7:20 AM 4:26 PM
Waxing Gibbous, 75% visible
METAR KRME 091553Z 32013KT 10SM SCT040 OVC050 M04/M09 A3015 RMK AO2 SNE06B09E36 SLP214 P0000 T10441094

10-Day Weather Forecast

Almanac

Astronomy

Dec. 09, 2016 Rise Set
Actual Time
Civil Twilight
Nautical Twilight
Astronomical Twilight
Moon
Length of Visible Light
Length of Day
Tomorrow will be .
, % of the Moon is Illuminated

Today's Extremes

State Highs State Lows

Community

WunderPhotos

Upload Photos

1,956,462 photos uploaded!

WunderBlog® & News

Nearby

Air Quality

  Air Quality AQ Index Pollutant
Not available.

Snow Depth

Station Depth Elevation

Earthquake Activity

City Distance Mag. Time & Date
Minimum magnitude displayed is 2.5.

Coastal Water Temperatures

Place Temperature

Stations

Nearby Weather Stations

Station Location Temp. Windchill Dew Point Humidity Wind Precip. Elev Updated Type
                   

Watches & Warnings

Lake Effect Snow Advisory
Issued: 3:24 AM EST Dec. 9, 2016 – National Weather Service

... Lake effect Snow Advisory remains in effect until 7 am EST
Saturday...

* locations... southern Cayuga... Onondaga... Madison... Cortland...
Chenango and Otsego counties.

* Accumulations... total snow accumulation of 3 to 6 inches... with
much of the snowfall occurring early this morning and again
overnight. The higher terrain in southern Onondaga and southern
Madison counties will see the most snowfall.

* Impacts... lake effect snow and gusty winds will produce blowing
and drifting snow which will make travel difficult at times.

* Winds... northwest 10 to 15 mph with gusts up to 30 mph.

* Temperatures... in the upper 20s today but dropping into the
teens overnight.

Precautionary/preparedness actions...

A lake effect Snow Advisory Means Lake-effect snow is forecast
that will make travel difficult in some areas. Lake-effect snow
showers typically align themselves in bands and will likely be
intense enough to drop several inches in localized areas. Use
caution when traveling.